Terminal Aerodrome Forecast
Issued by NWS

Home | Current Version | Previous Version | Text Only | Print | Product List | Glossary On
Versions: 1 2 3 4 5 6 7 8 9 10 11 12 13 14 15 16
196
FTUS46 KPDT 271955 AAA
TAFPSC
TAF AMD
KPSC 271955Z 2720/2818 23010KT P6SM SCT040 BKN080
     FM272300 23010KT P6SM VCSH BKN035 OVC070
     FM280300 23009KT P6SM BKN060=

USA.gov is the U.S. government's official web portal to all federal, state and local government web resources and services.